Chadwick, Illinois
Current Conditions -  °F | °C
As of 8:15 AM on Thursday 18 Dec 2014 (Local Time) from KSFY Reporting Station
Clear Clear  
Wind Chill: 16°   Ceiling: Unl
Heat Index: 16°   Visibility: 7mi
Dew Point: 13°   Wind: 0mph
Humidity: 90%   Direction: NA
Pressure: 30.32"   Gusts: NA
Location:  42.01°N, 89.89°W
Report Text: KSFY 181415Z AUTO 00000KT 7SM CLR M09/M10 A3032 RMK AO2 T10901103
Loading
Personal Weather Stations






























Interactive Weather Map New forecast layout! Learn more

10-Day Weather Forecast

Advertisements
Track Severe Weather on mobile